sensor_id;sensor_type;location;lat;lon;timestamp;P1;durP1;ratioP1;P2;durP2;ratioP2
25922;SDS011;13725;51.170;4.442;2023-07-29T00:01:44;1.60;;;1.10;;
25922;SDS011;13725;51.170;4.442;2023-07-29T00:04:11;3.13;;;1.23;;
25922;SDS011;13725;51.170;4.442;2023-07-29T00:06:37;3.53;;;1.48;;
25922;SDS011;13725;51.170;4.442;2023-07-29T00:09:03;3.03;;;1.20;;
25922;SDS011;13725;51.170;4.442;2023-07-29T00:11:28;4.70;;;1.30;;
25922;SDS011;13725;51.170;4.442;2023-07-29T00:13:55;3.72;;;1.50;;
25922;SDS011;13725;51.170;4.442;2023-07-29T00:16:21;1.67;;;1.20;;
25922;SDS011;13725;51.170;4.442;2023-07-29T00:18:51;1.98;;;1.50;;
25922;SDS011;13725;51.170;4.442;2023-07-29T00:21:16;2.92;;;1.50;;
25922;SDS011;13725;51.170;4.442;2023-07-29T00:23:42;1.33;;;1.23;;
25922;SDS011;13725;51.170;4.442;2023-07-29T00:26:08;4.32;;;1.75;;
25922;SDS011;13725;51.170;4.442;2023-07-29T00:28:34;3.40;;;1.58;;
25922;SDS011;13725;51.170;4.442;2023-07-29T00:30:59;2.97;;;1.40;;
25922;SDS011;13725;51.170;4.442;2023-07-29T00:33:25;1.60;;;1.50;;
25922;SDS011;13725;51.170;4.442;2023-07-29T00:35:52;2.65;;;1.50;;
25922;SDS011;13725;51.170;4.442;2023-07-29T00:38:17;2.33;;;1.40;;
25922;SDS011;13725;51.170;4.442;2023-07-29T00:40:43;1.92;;;1.52;;
25922;SDS011;13725;51.170;4.442;2023-07-29T00:43:09;1.88;;;1.42;;
25922;SDS011;13725;51.170;4.442;2023-07-29T00:45:35;1.83;;;1.63;;
25922;SDS011;13725;51.170;4.442;2023-07-29T00:48:01;3.80;;;1.67;;
25922;SDS011;13725;51.170;4.442;2023-07-29T00:50:28;2.67;;;1.60;;
25922;SDS011;13725;51.170;4.442;2023-07-29T00:52:55;1.90;;;1.23;;
25922;SDS011;13725;51.170;4.442;2023-07-29T00:55:22;3.35;;;1.50;;
25922;SDS011;13725;51.170;4.442;2023-07-29T00:57:48;2.67;;;1.45;;
25922;SDS011;13725;51.170;4.442;2023-07-29T01:00:17;2.53;;;1.67;;
25922;SDS011;13725;51.170;4.442;2023-07-29T01:02:43;1.27;;;1.17;;
25922;SDS011;13725;51.170;4.442;2023-07-29T01:05:09;3.53;;;1.73;;
25922;SDS011;13725;51.170;4.442;2023-07-29T01:11:02;1.58;;;1.48;;
25922;SDS011;13725;51.170;4.442;2023-07-29T01:13:17;2.97;;;1.60;;
25922;SDS011;13725;51.170;4.442;2023-07-29T01:16:00;2.95;;;1.23;;
25922;SDS011;13725;51.170;4.442;2023-07-29T01:18:31;4.15;;;1.63;;
25922;SDS011;13725;51.170;4.442;2023-07-29T01:21:03;3.30;;;1.60;;
25922;SDS011;13725;51.170;4.442;2023-07-29T01:23:31;3.03;;;1.60;;
25922;SDS011;13725;51.170;4.442;2023-07-29T01:25:59;4.63;;;1.60;;
25922;SDS011;13725;51.170;4.442;2023-07-29T01:28:24;4.22;;;1.80;;
25922;SDS011;13725;51.170;4.442;2023-07-29T01:30:52;3.40;;;1.60;;
25922;SDS011;13725;51.170;4.442;2023-07-29T01:33:26;2.50;;;1.48;;
25922;SDS011;13725;51.170;4.442;2023-07-29T01:36:03;4.63;;;2.28;;
25922;SDS011;13725;51.170;4.442;2023-07-29T01:38:35;2.47;;;1.50;;
25922;SDS011;13725;51.170;4.442;2023-07-29T01:41:03;3.92;;;1.52;;
25922;SDS011;13725;51.170;4.442;2023-07-29T01:43:32;1.75;;;1.30;;
25922;SDS011;13725;51.170;4.442;2023-07-29T01:46:00;4.97;;;1.70;;
25922;SDS011;13725;51.170;4.442;2023-07-29T01:48:26;3.42;;;1.70;;
25922;SDS011;13725;51.170;4.442;2023-07-29T01:50:54;2.17;;;1.60;;
25922;SDS011;13725;51.170;4.442;2023-07-29T01:53:19;2.83;;;1.83;;
25922;SDS011;13725;51.170;4.442;2023-07-29T01:55:45;2.95;;;1.77;;
25922;SDS011;13725;51.170;4.442;2023-07-29T01:58:11;2.47;;;1.63;;
25922;SDS011;13725;51.170;4.442;2023-07-29T02:00:39;2.42;;;1.70;;
25922;SDS011;13725;51.170;4.442;2023-07-29T02:03:05;2.22;;;1.58;;
25922;SDS011;13725;51.170;4.442;2023-07-29T02:05:31;3.80;;;1.80;;
25922;SDS011;13725;51.170;4.442;2023-07-29T02:07:57;4.18;;;1.90;;
25922;SDS011;13725;51.170;4.442;2023-07-29T02:10:22;5.28;;;1.80;;
25922;SDS011;13725;51.170;4.442;2023-07-29T02:12:48;4.00;;;1.90;;
25922;SDS011;13725;51.170;4.442;2023-07-29T02:15:15;2.83;;;2.05;;
25922;SDS011;13725;51.170;4.442;2023-07-29T02:17:41;4.68;;;1.70;;
25922;SDS011;13725;51.170;4.442;2023-07-29T02:20:08;5.55;;;2.00;;
25922;SDS011;13725;51.170;4.442;2023-07-29T02:22:36;3.80;;;1.77;;
25922;SDS011;13725;51.170;4.442;2023-07-29T02:25:01;3.90;;;1.65;;
25922;SDS011;13725;51.170;4.442;2023-07-29T02:27:28;3.85;;;1.95;;
25922;SDS011;13725;51.170;4.442;2023-07-29T02:29:54;2.65;;;1.67;;
25922;SDS011;13725;51.170;4.442;2023-07-29T02:32:20;2.00;;;1.60;;
25922;SDS011;13725;51.170;4.442;2023-07-29T02:34:47;3.85;;;2.10;;
25922;SDS011;13725;51.170;4.442;2023-07-29T02:37:14;3.90;;;1.90;;
25922;SDS011;13725;51.170;4.442;2023-07-29T02:39:40;2.85;;;1.80;;
25922;SDS011;13725;51.170;4.442;2023-07-29T02:42:06;3.97;;;1.65;;
25922;SDS011;13725;51.170;4.442;2023-07-29T02:44:31;4.00;;;2.03;;
25922;SDS011;13725;51.170;4.442;2023-07-29T02:46:57;6.85;;;2.22;;
25922;SDS011;13725;51.170;4.442;2023-07-29T02:49:23;3.65;;;1.92;;
25922;SDS011;13725;51.170;4.442;2023-07-29T02:51:49;3.55;;;2.05;;
25922;SDS011;13725;51.170;4.442;2023-07-29T02:54:14;3.53;;;1.83;;
25922;SDS011;13725;51.170;4.442;2023-07-29T02:56:40;3.97;;;1.95;;
25922;SDS011;13725;51.170;4.442;2023-07-29T02:59:07;3.88;;;1.80;;
25922;SDS011;13725;51.170;4.442;2023-07-29T03:01:33;4.30;;;2.05;;
25922;SDS011;13725;51.170;4.442;2023-07-29T03:03:58;4.90;;;2.10;;
25922;SDS011;13725;51.170;4.442;2023-07-29T03:06:24;3.80;;;1.83;;
25922;SDS011;13725;51.170;4.442;2023-07-29T03:08:50;2.20;;;1.90;;
25922;SDS011;13725;51.170;4.442;2023-07-29T03:11:16;2.28;;;1.73;;
25922;SDS011;13725;51.170;4.442;2023-07-29T03:13:42;2.30;;;1.55;;
25922;SDS011;13725;51.170;4.442;2023-07-29T03:18:40;1.50;;;1.30;;
25922;SDS011;13725;51.170;4.442;2023-07-29T03:21:08;6.47;;;1.95;;
25922;SDS011;13725;51.170;4.442;2023-07-29T03:23:34;3.10;;;1.63;;
25922;SDS011;13725;51.170;4.442;2023-07-29T03:26:02;2.92;;;2.00;;
25922;SDS011;13725;51.170;4.442;2023-07-29T03:28:35;1.70;;;1.60;;
25922;SDS011;13725;51.170;4.442;2023-07-29T03:31:01;1.73;;;1.40;;
25922;SDS011;13725;51.170;4.442;2023-07-29T03:33:28;2.47;;;1.85;;
25922;SDS011;13725;51.170;4.442;2023-07-29T03:35:54;1.95;;;1.58;;
25922;SDS011;13725;51.170;4.442;2023-07-29T03:38:20;3.20;;;1.67;;
25922;SDS011;13725;51.170;4.442;2023-07-29T03:40:46;3.42;;;1.80;;
25922;SDS011;13725;51.170;4.442;2023-07-29T03:43:11;2.53;;;1.60;;
25922;SDS011;13725;51.170;4.442;2023-07-29T03:45:37;4.25;;;2.05;;
25922;SDS011;13725;51.170;4.442;2023-07-29T03:48:04;2.83;;;1.85;;
25922;SDS011;13725;51.170;4.442;2023-07-29T03:50:30;2.75;;;1.60;;
25922;SDS011;13725;51.170;4.442;2023-07-29T03:52:59;3.88;;;1.90;;
25922;SDS011;13725;51.170;4.442;2023-07-29T03:55:25;4.35;;;1.75;;
25922;SDS011;13725;51.170;4.442;2023-07-29T03:57:50;4.65;;;2.20;;
25922;SDS011;13725;51.170;4.442;2023-07-29T04:00:16;2.45;;;2.05;;
25922;SDS011;13725;51.170;4.442;2023-07-29T04:02:42;4.70;;;2.10;;
25922;SDS011;13725;51.170;4.442;2023-07-29T04:05:09;3.58;;;1.67;;
25922;SDS011;13725;51.170;4.442;2023-07-29T04:07:36;4.25;;;1.88;;
25922;SDS011;13725;51.170;4.442;2023-07-29T04:10:02;2.78;;;1.55;;
25922;SDS011;13725;51.170;4.442;2023-07-29T04:12:29;2.25;;;1.42;;
25922;SDS011;13725;51.170;4.442;2023-07-29T04:14:55;3.42;;;2.00;;
25922;SDS011;13725;51.170;4.442;2023-07-29T04:17:21;1.90;;;1.55;;
25922;SDS011;13725;51.170;4.442;2023-07-29T04:19:47;2.42;;;1.63;;
25922;SDS011;13725;51.170;4.442;2023-07-29T04:22:13;3.17;;;1.58;;
25922;SDS011;13725;51.170;4.442;2023-07-29T04:24:40;2.15;;;1.80;;
25922;SDS011;13725;51.170;4.442;2023-07-29T04:27:06;5.03;;;1.50;;
25922;SDS011;13725;51.170;4.442;2023-07-29T04:29:33;4.78;;;1.90;;
25922;SDS011;13725;51.170;4.442;2023-07-29T04:32:01;2.28;;;1.50;;
25922;SDS011;13725;51.170;4.442;2023-07-29T04:34:30;5.05;;;1.90;;
25922;SDS011;13725;51.170;4.442;2023-07-29T04:36:56;7.38;;;1.80;;
25922;SDS011;13725;51.170;4.442;2023-07-29T04:39:22;2.97;;;1.83;;
25922;SDS011;13725;51.170;4.442;2023-07-29T04:41:47;3.83;;;2.00;;
25922;SDS011;13725;51.170;4.442;2023-07-29T04:44:14;5.78;;;1.75;;
25922;SDS011;13725;51.170;4.442;2023-07-29T04:46:40;2.80;;;1.90;;
25922;SDS011;13725;51.170;4.442;2023-07-29T04:49:05;1.65;;;1.45;;
25922;SDS011;13725;51.170;4.442;2023-07-29T04:51:31;5.03;;;1.90;;
25922;SDS011;13725;51.170;4.442;2023-07-29T04:53:57;3.55;;;2.03;;
25922;SDS011;13725;51.170;4.442;2023-07-29T04:56:24;3.72;;;1.67;;
25922;SDS011;13725;51.170;4.442;2023-07-29T04:58:50;2.42;;;1.70;;
25922;SDS011;13725;51.170;4.442;2023-07-29T05:01:16;2.40;;;2.00;;
25922;SDS011;13725;51.170;4.442;2023-07-29T05:03:41;2.70;;;1.63;;
25922;SDS011;13725;51.170;4.442;2023-07-29T05:06:07;1.98;;;1.65;;
25922;SDS011;13725;51.170;4.442;2023-07-29T05:08:33;3.45;;;1.80;;
25922;SDS011;13725;51.170;4.442;2023-07-29T05:10:59;2.08;;;1.48;;
25922;SDS011;13725;51.170;4.442;2023-07-29T05:13:25;1.60;;;1.20;;
25922;SDS011;13725;51.170;4.442;2023-07-29T05:15:51;2.83;;;1.77;;
25922;SDS011;13725;51.170;4.442;2023-07-29T05:18:17;2.33;;;1.33;;
25922;SDS011;13725;51.170;4.442;2023-07-29T05:20:43;3.15;;;1.50;;
25922;SDS011;13725;51.170;4.442;2023-07-29T05:23:08;4.43;;;1.75;;
25922;SDS011;13725;51.170;4.442;2023-07-29T05:25:34;4.20;;;1.80;;
25922;SDS011;13725;51.170;4.442;2023-07-29T05:28:01;3.92;;;1.50;;
25922;SDS011;13725;51.170;4.442;2023-07-29T05:30:28;3.30;;;1.67;;
25922;SDS011;13725;51.170;4.442;2023-07-29T05:32:59;3.95;;;1.73;;
25922;SDS011;13725;51.170;4.442;2023-07-29T05:35:25;2.28;;;1.70;;
25922;SDS011;13725;51.170;4.442;2023-07-29T05:37:51;2.13;;;1.50;;
25922;SDS011;13725;51.170;4.442;2023-07-29T05:40:17;2.30;;;1.50;;
25922;SDS011;13725;51.170;4.442;2023-07-29T05:42:43;2.78;;;1.63;;
25922;SDS011;13725;51.170;4.442;2023-07-29T05:45:10;3.38;;;1.67;;
25922;SDS011;13725;51.170;4.442;2023-07-29T05:47:36;2.50;;;1.48;;
25922;SDS011;13725;51.170;4.442;2023-07-29T05:50:03;2.95;;;1.63;;
25922;SDS011;13725;51.170;4.442;2023-07-29T05:52:32;1.95;;;1.70;;
25922;SDS011;13725;51.170;4.442;2023-07-29T05:54:59;2.17;;;1.63;;
25922;SDS011;13725;51.170;4.442;2023-07-29T05:57:25;4.57;;;2.08;;
25922;SDS011;13725;51.170;4.442;2023-07-29T05:59:50;2.20;;;1.80;;
25922;SDS011;13725;51.170;4.442;2023-07-29T06:02:17;4.68;;;1.90;;
25922;SDS011;13725;51.170;4.442;2023-07-29T06:04:44;3.80;;;1.65;;
25922;SDS011;13725;51.170;4.442;2023-07-29T06:07:09;3.17;;;1.70;;
25922;SDS011;13725;51.170;4.442;2023-07-29T06:09:35;3.75;;;1.85;;
25922;SDS011;13725;51.170;4.442;2023-07-29T06:12:02;2.65;;;1.70;;
25922;SDS011;13725;51.170;4.442;2023-07-29T06:14:28;2.65;;;1.50;;
25922;SDS011;13725;51.170;4.442;2023-07-29T06:16:54;4.80;;;1.88;;
25922;SDS011;13725;51.170;4.442;2023-07-29T06:19:20;7.78;;;1.75;;
25922;SDS011;13725;51.170;4.442;2023-07-29T06:21:46;2.78;;;1.83;;
25922;SDS011;13725;51.170;4.442;2023-07-29T06:24:12;2.65;;;1.73;;
25922;SDS011;13725;51.170;4.442;2023-07-29T06:26:38;4.00;;;1.50;;
25922;SDS011;13725;51.170;4.442;2023-07-29T06:29:03;3.63;;;1.27;;
25922;SDS011;13725;51.170;4.442;2023-07-29T06:31:29;4.03;;;1.40;;
25922;SDS011;13725;51.170;4.442;2023-07-29T06:33:55;3.63;;;1.50;;
25922;SDS011;13725;51.170;4.442;2023-07-29T06:36:21;2.90;;;1.45;;
25922;SDS011;13725;51.170;4.442;2023-07-29T06:38:47;2.35;;;1.38;;
25922;SDS011;13725;51.170;4.442;2023-07-29T06:41:13;5.30;;;1.40;;
25922;SDS011;13725;51.170;4.442;2023-07-29T06:43:39;2.05;;;1.27;;
25922;SDS011;13725;51.170;4.442;2023-07-29T06:46:04;1.60;;;1.42;;
25922;SDS011;13725;51.170;4.442;2023-07-29T06:48:30;2.20;;;1.20;;
25922;SDS011;13725;51.170;4.442;2023-07-29T06:50:56;3.45;;;1.45;;
25922;SDS011;13725;51.170;4.442;2023-07-29T06:53:25;2.90;;;1.15;;
25922;SDS011;13725;51.170;4.442;2023-07-29T06:55:51;2.10;;;1.10;;
25922;SDS011;13725;51.170;4.442;2023-07-29T06:58:17;1.90;;;1.05;;
25922;SDS011;13725;51.170;4.442;2023-07-29T07:00:43;4.82;;;1.40;;
25922;SDS011;13725;51.170;4.442;2023-07-29T07:03:09;2.33;;;1.40;;
25922;SDS011;13725;51.170;4.442;2023-07-29T07:05:35;3.72;;;1.40;;
25922;SDS011;13725;51.170;4.442;2023-07-29T07:08:01;1.27;;;1.10;;
25922;SDS011;13725;51.170;4.442;2023-07-29T07:10:26;2.47;;;1.25;;
25922;SDS011;13725;51.170;4.442;2023-07-29T07:12:52;1.48;;;1.10;;
25922;SDS011;13725;51.170;4.442;2023-07-29T07:15:18;2.08;;;1.10;;
25922;SDS011;13725;51.170;4.442;2023-07-29T07:17:43;1.73;;;1.08;;
25922;SDS011;13725;51.170;4.442;2023-07-29T07:20:09;3.38;;;1.38;;
25922;SDS011;13725;51.170;4.442;2023-07-29T07:22:35;2.72;;;1.20;;
25922;SDS011;13725;51.170;4.442;2023-07-29T07:25:01;2.55;;;1.23;;
25922;SDS011;13725;51.170;4.442;2023-07-29T07:27:27;2.35;;;1.30;;
25922;SDS011;13725;51.170;4.442;2023-07-29T07:29:53;1.10;;;1.00;;
25922;SDS011;13725;51.170;4.442;2023-07-29T07:32:19;1.45;;;1.17;;
25922;SDS011;13725;51.170;4.442;2023-07-29T07:34:45;4.47;;;1.50;;
25922;SDS011;13725;51.170;4.442;2023-07-29T07:37:11;2.95;;;1.30;;
25922;SDS011;13725;51.170;4.442;2023-07-29T07:39:37;2.35;;;1.02;;
25922;SDS011;13725;51.170;4.442;2023-07-29T07:42:02;1.65;;;1.33;;
25922;SDS011;13725;51.170;4.442;2023-07-29T07:44:28;2.58;;;1.40;;
25922;SDS011;13725;51.170;4.442;2023-07-29T07:46:54;2.38;;;1.20;;
25922;SDS011;13725;51.170;4.442;2023-07-29T07:49:20;2.58;;;1.13;;
25922;SDS011;13725;51.170;4.442;2023-07-29T07:51:46;2.72;;;1.20;;
25922;SDS011;13725;51.170;4.442;2023-07-29T07:54:11;2.35;;;1.38;;
25922;SDS011;13725;51.170;4.442;2023-07-29T07:56:37;3.50;;;1.30;;
25922;SDS011;13725;51.170;4.442;2023-07-29T07:59:03;2.05;;;1.33;;
25922;SDS011;13725;51.170;4.442;2023-07-29T08:01:33;1.65;;;0.98;;
25922;SDS011;13725;51.170;4.442;2023-07-29T08:04:02;2.77;;;1.37;;
25922;SDS011;13725;51.170;4.442;2023-07-29T08:06:28;2.58;;;1.05;;
25922;SDS011;13725;51.170;4.442;2023-07-29T08:08:55;2.15;;;1.00;;
25922;SDS011;13725;51.170;4.442;2023-07-29T08:11:21;1.73;;;1.00;;
25922;SDS011;13725;51.170;4.442;2023-07-29T08:13:47;1.58;;;1.10;;
25922;SDS011;13725;51.170;4.442;2023-07-29T08:16:13;1.52;;;0.82;;
25922;SDS011;13725;51.170;4.442;2023-07-29T08:18:39;1.90;;;0.88;;
25922;SDS011;13725;51.170;4.442;2023-07-29T08:21:05;0.93;;;0.70;;
25922;SDS011;13725;51.170;4.442;2023-07-29T08:23:32;3.08;;;1.20;;
25922;SDS011;13725;51.170;4.442;2023-07-29T08:26:01;2.35;;;0.80;;
25922;SDS011;13725;51.170;4.442;2023-07-29T08:28:32;1.02;;;0.88;;
25922;SDS011;13725;51.170;4.442;2023-07-29T08:30:58;2.15;;;1.10;;
25922;SDS011;13725;51.170;4.442;2023-07-29T08:33:25;1.75;;;1.33;;
25922;SDS011;13725;51.170;4.442;2023-07-29T08:35:51;1.38;;;1.00;;
25922;SDS011;13725;51.170;4.442;2023-07-29T08:38:17;1.77;;;1.00;;
25922;SDS011;13725;51.170;4.442;2023-07-29T08:41:26;0.90;;;0.80;;
25922;SDS011;13725;51.170;4.442;2023-07-29T08:43:32;1.83;;;1.02;;
25922;SDS011;13725;51.170;4.442;2023-07-29T08:45:58;1.35;;;0.88;;
25922;SDS011;13725;51.170;4.442;2023-07-29T08:48:46;2.35;;;0.95;;
25922;SDS011;13725;51.170;4.442;2023-07-29T08:51:11;2.30;;;1.02;;
25922;SDS011;13725;51.170;4.442;2023-07-29T08:53:38;1.05;;;0.90;;
25922;SDS011;13725;51.170;4.442;2023-07-29T08:56:04;1.95;;;1.20;;
25922;SDS011;13725;51.170;4.442;2023-07-29T08:58:31;1.25;;;0.90;;
25922;SDS011;13725;51.170;4.442;2023-07-29T09:00:57;3.55;;;1.20;;
25922;SDS011;13725;51.170;4.442;2023-07-29T09:03:23;2.30;;;1.10;;
25922;SDS011;13725;51.170;4.442;2023-07-29T09:05:49;3.30;;;1.17;;
25922;SDS011;13725;51.170;4.442;2023-07-29T09:08:16;1.48;;;1.30;;
25922;SDS011;13725;51.170;4.442;2023-07-29T09:10:42;2.97;;;1.05;;
25922;SDS011;13725;51.170;4.442;2023-07-29T09:13:08;5.03;;;1.10;;
25922;SDS011;13725;51.170;4.442;2023-07-29T09:15:35;3.08;;;1.30;;
25922;SDS011;13725;51.170;4.442;2023-07-29T09:20:58;1.88;;;1.23;;
25922;SDS011;13725;51.170;4.442;2023-07-29T09:23:25;1.20;;;1.10;;
25922;SDS011;13725;51.170;4.442;2023-07-29T09:26:00;1.27;;;0.90;;
25922;SDS011;13725;51.170;4.442;2023-07-29T09:28:27;3.10;;;1.40;;
25922;SDS011;13725;51.170;4.442;2023-07-29T09:31:01;3.55;;;1.10;;
25922;SDS011;13725;51.170;4.442;2023-07-29T09:33:27;1.75;;;1.17;;
25922;SDS011;13725;51.170;4.442;2023-07-29T09:35:54;1.90;;;1.17;;
25922;SDS011;13725;51.170;4.442;2023-07-29T09:38:25;2.17;;;1.40;;
25922;SDS011;13725;51.170;4.442;2023-07-29T09:43:24;2.03;;;1.13;;
25922;SDS011;13725;51.170;4.442;2023-07-29T09:46:00;1.45;;;1.02;;
25922;SDS011;13725;51.170;4.442;2023-07-29T09:48:27;2.40;;;1.27;;
25922;SDS011;13725;51.170;4.442;2023-07-29T09:50:56;5.10;;;1.58;;
25922;SDS011;13725;51.170;4.442;2023-07-29T09:53:22;1.10;;;0.90;;
25922;SDS011;13725;51.170;4.442;2023-07-29T09:55:48;2.83;;;1.23;;
25922;SDS011;13725;51.170;4.442;2023-07-29T09:58:19;2.33;;;1.15;;
25922;SDS011;13725;51.170;4.442;2023-07-29T10:00:52;3.28;;;1.30;;
25922;SDS011;13725;51.170;4.442;2023-07-29T10:03:19;2.30;;;1.67;;
25922;SDS011;13725;51.170;4.442;2023-07-29T10:05:46;2.13;;;1.33;;
25922;SDS011;13725;51.170;4.442;2023-07-29T10:08:12;5.45;;;1.23;;
25922;SDS011;13725;51.170;4.442;2023-07-29T10:10:41;3.85;;;1.60;;
25922;SDS011;13725;51.170;4.442;2023-07-29T10:13:07;1.83;;;1.23;;
25922;SDS011;13725;51.170;4.442;2023-07-29T10:15:35;2.85;;;1.35;;
25922;SDS011;13725;51.170;4.442;2023-07-29T10:18:01;4.05;;;1.60;;
25922;SDS011;13725;51.170;4.442;2023-07-29T10:20:29;1.92;;;1.48;;
25922;SDS011;13725;51.170;4.442;2023-07-29T10:22:56;1.95;;;1.50;;
25922;SDS011;13725;51.170;4.442;2023-07-29T10:25:30;5.40;;;1.48;;
25922;SDS011;13725;51.170;4.442;2023-07-29T10:28:05;3.20;;;1.55;;
25922;SDS011;13725;51.170;4.442;2023-07-29T10:30:31;1.95;;;1.42;;
25922;SDS011;13725;51.170;4.442;2023-07-29T10:32:58;2.13;;;1.20;;
25922;SDS011;13725;51.170;4.442;2023-07-29T10:35:27;2.75;;;1.30;;
25922;SDS011;13725;51.170;4.442;2023-07-29T10:37:53;2.67;;;1.13;;
25922;SDS011;13725;51.170;4.442;2023-07-29T10:40:20;2.83;;;1.15;;
25922;SDS011;13725;51.170;4.442;2023-07-29T10:43:03;2.60;;;1.45;;
25922;SDS011;13725;51.170;4.442;2023-07-29T10:45:38;2.22;;;1.20;;
25922;SDS011;13725;51.170;4.442;2023-07-29T10:48:06;1.70;;;1.38;;
25922;SDS011;13725;51.170;4.442;2023-07-29T10:50:35;1.45;;;1.30;;
25922;SDS011;13725;51.170;4.442;2023-07-29T10:53:01;2.22;;;1.27;;
25922;SDS011;13725;51.170;4.442;2023-07-29T10:55:33;2.13;;;1.10;;
25922;SDS011;13725;51.170;4.442;2023-07-29T10:58:12;2.75;;;1.40;;
25922;SDS011;13725;51.170;4.442;2023-07-29T11:00:41;5.75;;;0.98;;
25922;SDS011;13725;51.170;4.442;2023-07-29T11:03:07;2.10;;;0.93;;
25922;SDS011;13725;51.170;4.442;2023-07-29T11:05:46;3.00;;;1.10;;
25922;SDS011;13725;51.170;4.442;2023-07-29T11:08:26;3.33;;;1.08;;
25922;SDS011;13725;51.170;4.442;2023-07-29T11:10:57;1.73;;;1.10;;
25922;SDS011;13725;51.170;4.442;2023-07-29T11:13:25;1.40;;;1.20;;
25922;SDS011;13725;51.170;4.442;2023-07-29T11:15:55;1.35;;;1.00;;
25922;SDS011;13725;51.170;4.442;2023-07-29T11:18:25;1.20;;;1.10;;
25922;SDS011;13725;51.170;4.442;2023-07-29T11:20:54;3.25;;;1.00;;
25922;SDS011;13725;51.170;4.442;2023-07-29T11:23:21;2.05;;;1.30;;
25922;SDS011;13725;51.170;4.442;2023-07-29T11:26:02;1.75;;;1.50;;
25922;SDS011;13725;51.170;4.442;2023-07-29T11:28:30;1.98;;;1.48;;
25922;SDS011;13725;51.170;4.442;2023-07-29T11:30:56;2.50;;;1.58;;
25922;SDS011;13725;51.170;4.442;2023-07-29T11:33:24;4.60;;;2.10;;
25922;SDS011;13725;51.170;4.442;2023-07-29T11:35:51;14.02;;;2.70;;
25922;SDS011;13725;51.170;4.442;2023-07-29T11:38:17;11.90;;;3.00;;
25922;SDS011;13725;51.170;4.442;2023-07-29T11:40:54;3.78;;;1.95;;
25922;SDS011;13725;51.170;4.442;2023-07-29T11:43:21;3.20;;;2.35;;
25922;SDS011;13725;51.170;4.442;2023-07-29T11:45:47;4.82;;;2.58;;
25922;SDS011;13725;51.170;4.442;2023-07-29T11:48:13;4.35;;;2.30;;
25922;SDS011;13725;51.170;4.442;2023-07-29T11:50:38;3.28;;;2.38;;
25922;SDS011;13725;51.170;4.442;2023-07-29T11:53:05;2.90;;;1.65;;
25922;SDS011;13725;51.170;4.442;2023-07-29T11:55:30;4.03;;;1.80;;
25922;SDS011;13725;51.170;4.442;2023-07-29T11:57:58;1.73;;;1.33;;
25922;SDS011;13725;51.170;4.442;2023-07-29T12:00:24;3.55;;;1.40;;
25922;SDS011;13725;51.170;4.442;2023-07-29T12:02:52;2.53;;;1.70;;
25922;SDS011;13725;51.170;4.442;2023-07-29T12:05:18;1.90;;;1.30;;
25922;SDS011;13725;51.170;4.442;2023-07-29T12:07:47;1.40;;;0.93;;
25922;SDS011;13725;51.170;4.442;2023-07-29T12:10:13;1.25;;;1.00;;
25922;SDS011;13725;51.170;4.442;2023-07-29T12:12:49;1.27;;;1.10;;
25922;SDS011;13725;51.170;4.442;2023-07-29T12:15:28;1.80;;;1.10;;
25922;SDS011;13725;51.170;4.442;2023-07-29T12:17:56;1.60;;;1.10;;
25922;SDS011;13725;51.170;4.442;2023-07-29T12:20:23;1.15;;;1.00;;
25922;SDS011;13725;51.170;4.442;2023-07-29T12:22:56;1.35;;;0.98;;
25922;SDS011;13725;51.170;4.442;2023-07-29T12:27:48;1.80;;;1.10;;
25922;SDS011;13725;51.170;4.442;2023-07-29T12:30:14;1.67;;;0.80;;
25922;SDS011;13725;51.170;4.442;2023-07-29T12:32:44;1.27;;;0.85;;
25922;SDS011;13725;51.170;4.442;2023-07-29T12:35:10;2.50;;;0.93;;
25922;SDS011;13725;51.170;4.442;2023-07-29T12:37:36;1.55;;;0.88;;
25922;SDS011;13725;51.170;4.442;2023-07-29T12:40:04;1.20;;;0.98;;
25922;SDS011;13725;51.170;4.442;2023-07-29T12:42:30;5.00;;;0.98;;
25922;SDS011;13725;51.170;4.442;2023-07-29T12:44:55;1.00;;;0.82;;
25922;SDS011;13725;51.170;4.442;2023-07-29T12:47:21;0.90;;;0.88;;
25922;SDS011;13725;51.170;4.442;2023-07-29T12:49:47;1.65;;;0.90;;
25922;SDS011;13725;51.170;4.442;2023-07-29T12:52:12;1.63;;;1.13;;
25922;SDS011;13725;51.170;4.442;2023-07-29T12:54:38;0.77;;;0.55;;
25922;SDS011;13725;51.170;4.442;2023-07-29T12:57:05;1.77;;;0.80;;
25922;SDS011;13725;51.170;4.442;2023-07-29T12:59:31;1.30;;;0.80;;
25922;SDS011;13725;51.170;4.442;2023-07-29T13:01:57;1.33;;;0.75;;
25922;SDS011;13725;51.170;4.442;2023-07-29T13:04:22;1.02;;;0.80;;
25922;SDS011;13725;51.170;4.442;2023-07-29T13:06:48;5.25;;;0.80;;
25922;SDS011;13725;51.170;4.442;2023-07-29T13:09:14;1.58;;;0.80;;
25922;SDS011;13725;51.170;4.442;2023-07-29T13:11:40;0.77;;;0.70;;
25922;SDS011;13725;51.170;4.442;2023-07-29T13:14:06;1.08;;;0.70;;
25922;SDS011;13725;51.170;4.442;2023-07-29T13:16:32;0.85;;;0.82;;
25922;SDS011;13725;51.170;4.442;2023-07-29T13:18:58;1.00;;;0.63;;
25922;SDS011;13725;51.170;4.442;2023-07-29T13:21:23;1.98;;;0.75;;
25922;SDS011;13725;51.170;4.442;2023-07-29T13:23:49;3.92;;;0.80;;
25922;SDS011;13725;51.170;4.442;2023-07-29T13:26:16;1.38;;;0.90;;
25922;SDS011;13725;51.170;4.442;2023-07-29T13:28:42;0.95;;;0.60;;
25922;SDS011;13725;51.170;4.442;2023-07-29T13:31:08;2.75;;;0.82;;
25922;SDS011;13725;51.170;4.442;2023-07-29T13:33:33;0.90;;;0.77;;
25922;SDS011;13725;51.170;4.442;2023-07-29T13:36:00;0.63;;;0.63;;
25922;SDS011;13725;51.170;4.442;2023-07-29T13:38:28;1.00;;;0.73;;
25922;SDS011;13725;51.170;4.442;2023-07-29T13:40:54;2.15;;;0.73;;
25922;SDS011;13725;51.170;4.442;2023-07-29T13:43:20;1.30;;;0.90;;
25922;SDS011;13725;51.170;4.442;2023-07-29T13:45:45;1.48;;;0.60;;
25922;SDS011;13725;51.170;4.442;2023-07-29T13:48:13;0.80;;;0.80;;
25922;SDS011;13725;51.170;4.442;2023-07-29T13:50:39;0.90;;;0.70;;
25922;SDS011;13725;51.170;4.442;2023-07-29T13:53:06;2.17;;;0.98;;
25922;SDS011;13725;51.170;4.442;2023-07-29T13:55:32;1.67;;;0.98;;
25922;SDS011;13725;51.170;4.442;2023-07-29T13:57:57;1.27;;;0.80;;
25922;SDS011;13725;51.170;4.442;2023-07-29T14:00:23;2.17;;;0.80;;
25922;SDS011;13725;51.170;4.442;2023-07-29T14:02:49;1.27;;;0.98;;
25922;SDS011;13725;51.170;4.442;2023-07-29T14:05:15;1.45;;;0.73;;
25922;SDS011;13725;51.170;4.442;2023-07-29T14:07:40;2.05;;;0.85;;
25922;SDS011;13725;51.170;4.442;2023-07-29T14:10:06;1.95;;;0.80;;
25922;SDS011;13725;51.170;4.442;2023-07-29T14:12:32;1.40;;;0.90;;
25922;SDS011;13725;51.170;4.442;2023-07-29T14:14:58;1.13;;;0.98;;
25922;SDS011;13725;51.170;4.442;2023-07-29T14:17:24;2.40;;;1.20;;
25922;SDS011;13725;51.170;4.442;2023-07-29T14:19:50;1.15;;;1.00;;
25922;SDS011;13725;51.170;4.442;2023-07-29T14:22:16;1.30;;;1.15;;
25922;SDS011;13725;51.170;4.442;2023-07-29T14:24:41;1.02;;;0.80;;
25922;SDS011;13725;51.170;4.442;2023-07-29T14:27:07;1.42;;;1.08;;
25922;SDS011;13725;51.170;4.442;2023-07-29T14:29:33;2.47;;;1.20;;
25922;SDS011;13725;51.170;4.442;2023-07-29T14:31:58;1.90;;;1.27;;
25922;SDS011;13725;51.170;4.442;2023-07-29T14:34:24;1.80;;;1.17;;
25922;SDS011;13725;51.170;4.442;2023-07-29T14:36:50;1.10;;;0.90;;
25922;SDS011;13725;51.170;4.442;2023-07-29T14:39:15;1.23;;;0.98;;
25922;SDS011;13725;51.170;4.442;2023-07-29T14:41:41;1.02;;;0.98;;
25922;SDS011;13725;51.170;4.442;2023-07-29T14:44:08;1.08;;;1.00;;
25922;SDS011;13725;51.170;4.442;2023-07-29T14:46:34;1.60;;;1.40;;
25922;SDS011;13725;51.170;4.442;2023-07-29T14:48:59;1.73;;;1.30;;
25922;SDS011;13725;51.170;4.442;2023-07-29T14:51:25;1.50;;;1.25;;
25922;SDS011;13725;51.170;4.442;2023-07-29T14:53:52;2.08;;;1.23;;
25922;SDS011;13725;51.170;4.442;2023-07-29T14:56:17;2.55;;;1.40;;
25922;SDS011;13725;51.170;4.442;2023-07-29T14:58:44;1.98;;;1.08;;
25922;SDS011;13725;51.170;4.442;2023-07-29T15:01:11;2.50;;;1.33;;